Time;durP1;ratioP1;P1;durP2;ratioP2;P2;SDS_P1;SDS_P2;PMS_P1;PMS_P2;Temp;Humidity;BMP_temperature;BMP_pressure;BME280_temperature;BME280_humidity;BME280_pressure;Samples;Min_cycle;Max_cycle;Signal;HPM_P1;HPM_P2
2021/08/23 00:00:48;;;;;;;10.13;7.25;;;30.10;99.50;;;;;;4196226;28;20098;-64
2021/08/23 00:02:53;;;;;;;12.77;6.80;;;30.20;99.40;;;;;;4182674;28;20150;-64
2021/08/23 00:04:58;;;;;;;10.30;7.30;;;30.20;99.30;;;;;;4183860;28;20044;-65
2021/08/23 00:07:04;;;;;;;11.63;6.63;;;30.20;99.40;;;;;;4197947;28;20554;-65
2021/08/23 00:09:08;;;;;;;8.32;6.38;;;30.20;99.10;;;;;;4195203;28;20041;-63
2021/08/23 00:11:16;;;;;;;10.60;6.68;;;30.20;99.10;;;;;;4176512;28;20037;-65
2021/08/23 00:13:24;;;;;;;10.98;6.47;;;30.30;99.30;;;;;;4177846;28;20065;-64
2021/08/23 00:15:29;;;;;;;13.38;7.43;;;30.30;99.10;;;;;;4195127;28;20083;-64
2021/08/23 00:17:34;;;;;;;10.88;6.43;;;30.30;99.10;;;;;;4176016;28;20064;-63
2021/08/23 00:19:41;;;;;;;14.65;6.35;;;30.30;99.00;;;;;;4175824;28;20439;-63
2021/08/23 00:21:45;;;;;;;8.75;6.03;;;30.40;98.90;;;;;;4194139;28;20048;-63
2021/08/23 00:23:52;;;;;;;8.00;5.65;;;30.50;98.50;;;;;;4191602;28;20495;-63
2021/08/23 00:25:57;;;;;;;8.63;5.80;;;30.60;98.30;;;;;;4196031;28;20048;-64
2021/08/23 00:28:02;;;;;;;8.55;5.55;;;30.60;98.00;;;;;;4197029;28;20506;-64
2021/08/23 00:30:08;;;;;;;10.38;6.03;;;30.70;97.80;;;;;;4202376;28;20052;-63
2021/08/23 00:32:12;;;;;;;8.52;6.57;;;30.80;97.80;;;;;;4186048;28;20036;-64
2021/08/23 00:34:17;;;;;;;9.80;6.32;;;30.80;97.60;;;;;;4189943;28;20107;-64
2021/08/23 00:36:22;;;;;;;12.13;5.97;;;30.70;97.50;;;;;;4145191;28;20046;-63
2021/08/23 00:38:26;;;;;;;9.50;5.80;;;30.80;97.50;;;;;;4196079;28;20044;-65
2021/08/23 00:40:31;;;;;;;7.75;5.93;;;30.80;97.30;;;;;;4199255;28;20044;-65
2021/08/23 00:42:35;;;;;;;8.85;5.68;;;30.90;97.30;;;;;;4197631;28;20051;-64
2021/08/23 00:44:41;;;;;;;7.97;5.95;;;30.90;97.00;;;;;;4199637;28;20510;-63
2021/08/23 00:46:46;;;;;;;7.72;6.07;;;30.90;96.70;;;;;;4179964;28;20057;-64
2021/08/23 00:48:51;;;;;;;11.23;5.85;;;30.80;96.80;;;;;;4180954;28;20534;-64
2021/08/23 00:50:56;;;;;;;9.15;6.05;;;30.90;96.60;;;;;;4200229;28;20045;-63
2021/08/23 00:53:00;;;;;;;9.65;5.80;;;31.00;96.50;;;;;;4197237;28;20036;-63
2021/08/23 00:55:06;;;;;;;8.32;6.00;;;31.00;96.20;;;;;;4184741;28;20045;-65
2021/08/23 00:57:10;;;;;;;8.32;6.00;;;31.00;96.10;;;;;;4203000;28;20059;-64
2021/08/23 00:59:14;;;;;;;8.98;6.30;;;31.00;96.30;;;;;;4202736;28;20093;-61
2021/08/23 01:01:26;;;;;;;8.93;5.50;;;31.10;96.10;;;;;;4186286;28;20049;-64
2021/08/23 01:03:51;;;;;;;8.98;5.15;;;31.20;95.90;;;;;;4153782;28;20049;-65
2021/08/23 01:05:55;;;;;;;10.68;6.57;;;31.30;95.70;;;;;;4202407;28;20047;-64
2021/08/23 01:08:10;;;;;;;8.07;5.82;;;31.10;95.60;;;;;;4137331;28;20046;-64
2021/08/23 01:10:17;;;;;;;7.85;6.20;;;31.20;95.70;;;;;;4138122;28;20050;-64
2021/08/23 01:12:23;;;;;;;10.02;6.05;;;31.40;95.40;;;;;;4154758;28;20128;-65
2021/08/23 01:14:28;;;;;;;13.60;8.02;;;31.50;95.20;;;;;;4162701;28;20622;-64
2021/08/23 01:16:33;;;;;;;9.40;6.43;;;31.50;95.00;;;;;;4162181;28;20068;-64
2021/08/23 01:18:38;;;;;;;13.50;7.07;;;31.40;95.40;;;;;;4170507;28;20053;-65
2021/08/23 01:20:42;;;;;;;20.33;11.65;;;31.50;95.20;;;;;;4154450;28;20084;-65
2021/08/23 01:22:49;;;;;;;22.92;13.60;;;31.60;94.80;;;;;;4152072;28;20056;-65
2021/08/23 01:24:54;;;;;;;16.88;10.25;;;31.60;94.90;;;;;;4168270;28;20816;-66
2021/08/23 01:26:59;;;;;;;19.15;12.73;;;31.70;94.50;;;;;;4132491;28;20042;-64
2021/08/23 01:29:16;;;;;;;17.50;12.00;;;31.80;94.70;;;;;;4137144;28;20064;-64
2021/08/23 01:31:23;;;;;;;14.75;9.50;;;31.80;94.50;;;;;;4160919;28;20047;-65
2021/08/23 01:33:28;;;;;;;15.38;8.38;;;31.90;94.50;;;;;;4139575;28;20112;-64
2021/08/23 01:35:32;;;;;;;14.82;8.82;;;32.00;94.30;;;;;;4144931;28;20038;-65
2021/08/23 01:37:37;;;;;;;11.05;7.18;;;32.00;94.30;;;;;;4168805;28;20462;-64
2021/08/23 01:39:42;;;;;;;14.13;7.47;;;31.90;94.10;;;;;;4180530;28;20041;-62
2021/08/23 01:41:48;;;;;;;8.88;6.50;;;31.90;94.30;;;;;;4185462;28;20043;-64
2021/08/23 01:43:52;;;;;;;9.70;6.50;;;32.00;94.30;;;;;;4190134;28;20532;-64
2021/08/23 01:45:57;;;;;;;13.55;6.43;;;32.00;94.30;;;;;;4189474;28;20565;-64
2021/08/23 01:48:01;;;;;;;9.95;6.68;;;32.00;94.30;;;;;;4209140;28;20490;-64
2021/08/23 01:50:07;;;;;;;12.23;7.18;;;32.10;94.20;;;;;;4190749;28;20095;-65
2021/08/23 01:52:12;;;;;;;9.90;6.43;;;32.20;94.00;;;;;;4189938;28;20044;-64
2021/08/23 01:54:18;;;;;;;14.98;6.15;;;32.20;94.20;;;;;;4192108;28;20091;-64
2021/08/23 01:56:23;;;;;;;9.50;5.95;;;32.20;94.10;;;;;;4206280;28;20089;-64
2021/08/23 01:58:29;;;;;;;7.78;5.60;;;32.30;93.90;;;;;;4210348;28;20558;-64
2021/08/23 02:00:33;;;;;;;15.05;5.95;;;32.30;93.80;;;;;;4177579;28;20044;-63
2021/08/23 02:02:38;;;;;;;9.98;5.85;;;32.40;93.80;;;;;;4189176;28;20472;-64
2021/08/23 02:04:43;;;;;;;6.85;5.65;;;32.40;93.60;;;;;;4191879;28;20107;-65
2021/08/23 02:06:48;;;;;;;10.50;6.28;;;32.50;93.40;;;;;;4189900;28;20049;-66
2021/08/23 02:08:53;;;;;;;9.10;5.97;;;32.60;93.20;;;;;;4192222;28;20041;-65
2021/08/23 02:10:58;;;;;;;10.63;7.38;;;32.60;93.20;;;;;;4205805;28;20055;-65
2021/08/23 02:13:03;;;;;;;12.63;5.57;;;32.60;92.60;;;;;;4208867;28;20054;-66
2021/08/23 02:15:08;;;;;;;11.93;5.63;;;32.60;91.90;;;;;;4208208;28;20097;-65
2021/08/23 02:17:12;;;;;;;10.75;5.32;;;32.50;91.80;;;;;;4209418;28;20048;-65
2021/08/23 02:19:17;;;;;;;10.70;5.90;;;32.40;91.50;;;;;;4185933;28;20048;-66
2021/08/23 02:21:25;;;;;;;10.55;5.85;;;32.50;91.40;;;;;;4203575;28;20041;-66
2021/08/23 02:23:29;;;;;;;9.27;6.05;;;32.60;91.10;;;;;;4188020;28;20475;-66
2021/08/23 02:25:34;;;;;;;10.52;6.28;;;32.50;91.50;;;;;;4191028;28;20040;-66
2021/08/23 02:27:38;;;;;;;10.52;6.10;;;32.50;91.70;;;;;;4203805;28;20070;-66
2021/08/23 02:29:43;;;;;;;10.75;5.90;;;32.60;91.70;;;;;;4191541;28;20504;-66
2021/08/23 02:31:48;;;;;;;9.15;5.65;;;32.70;91.50;;;;;;4208532;28;20027;-66
2021/08/23 02:33:52;;;;;;;11.68;5.72;;;32.70;91.50;;;;;;4207905;28;20095;-66
2021/08/23 02:35:57;;;;;;;8.77;5.53;;;32.70;91.70;;;;;;4204541;28;20049;-67
2021/08/23 02:38:01;;;;;;;9.35;6.35;;;32.70;91.40;;;;;;4205345;28;20044;-67
2021/08/23 02:40:06;;;;;;;9.07;6.75;;;32.60;92.10;;;;;;4190005;28;20053;-66
2021/08/23 02:42:12;;;;;;;10.13;6.50;;;32.60;92.70;;;;;;4206811;28;20135;-67
2021/08/23 02:44:16;;;;;;;11.25;6.88;;;32.60;91.80;;;;;;4206655;28;20125;-67
2021/08/23 02:46:21;;;;;;;8.88;6.57;;;32.70;91.80;;;;;;4190021;28;20045;-66
2021/08/23 02:48:25;;;;;;;8.55;5.95;;;32.80;91.70;;;;;;4188680;28;20108;-66
2021/08/23 02:50:30;;;;;;;14.10;6.45;;;33.00;91.70;;;;;;4207886;28;20068;-67
2021/08/23 02:52:35;;;;;;;12.32;6.75;;;33.00;91.40;;;;;;4188109;28;20069;-66
2021/08/23 02:54:40;;;;;;;9.63;6.35;;;33.10;91.50;;;;;;4185895;28;20041;-65
2021/08/23 02:56:45;;;;;;;11.07;6.32;;;33.20;91.50;;;;;;4190262;28;20048;-68
2021/08/23 02:58:51;;;;;;;12.10;7.45;;;33.40;91.50;;;;;;4186097;28;20488;-67
2021/08/23 03:00:55;;;;;;;16.75;7.10;;;33.30;91.50;;;;;;4206607;28;20090;-68
2021/08/23 03:03:03;;;;;;;14.77;7.22;;;33.30;91.60;;;;;;4204255;28;20127;-66
2021/08/23 03:05:07;;;;;;;9.43;6.75;;;33.30;91.60;;;;;;4205484;28;20044;-68
2021/08/23 03:07:12;;;;;;;11.32;7.15;;;33.20;91.90;;;;;;4202967;28;20125;-67
2021/08/23 03:09:20;;;;;;;10.20;7.22;;;33.20;91.30;;;;;;4202352;28;20048;-67
2021/08/23 03:11:26;;;;;;;9.40;6.78;;;33.10;91.50;;;;;;4211125;28;20036;-66
2021/08/23 03:13:30;;;;;;;13.75;7.07;;;33.10;91.50;;;;;;4211050;28;20050;-68
2021/08/23 03:15:35;;;;;;;13.82;7.13;;;33.30;91.20;;;;;;4209828;28;20052;-68
2021/08/23 03:17:39;;;;;;;14.25;7.47;;;33.40;91.30;;;;;;4186983;28;20057;-67
2021/08/23 03:19:44;;;;;;;8.82;6.28;;;33.50;91.10;;;;;;4191786;28;20068;-69
2021/08/23 03:21:49;;;;;;;13.57;7.10;;;33.50;90.90;;;;;;4191253;28;20056;-67
2021/08/23 03:23:53;;;;;;;9.73;6.93;;;33.60;91.20;;;;;;4190625;28;20052;-65
2021/08/23 03:25:59;;;;;;;13.45;6.95;;;33.60;91.20;;;;;;4189806;28;20048;-67
2021/08/23 03:28:04;;;;;;;13.60;6.55;;;33.70;91.30;;;;;;4190511;28;20098;-66
2021/08/23 03:30:10;;;;;;;12.57;7.20;;;33.80;91.00;;;;;;4189249;28;20051;-66
2021/08/23 03:32:15;;;;;;;8.88;6.70;;;33.80;90.70;;;;;;4188168;28;20487;-67
2021/08/23 03:34:19;;;;;;;11.85;6.30;;;33.80;91.20;;;;;;4182138;28;20057;-66
2021/08/23 03:36:24;;;;;;;9.70;6.18;;;33.90;91.10;;;;;;4181913;28;20041;-66
2021/08/23 03:38:29;;;;;;;10.55;6.50;;;33.90;91.20;;;;;;4184652;28;20033;-67
2021/08/23 03:40:33;;;;;;;12.52;6.00;;;33.90;91.00;;;;;;4182823;28;20143;-66
2021/08/23 03:42:38;;;;;;;10.13;7.22;;;33.80;91.00;;;;;;4183268;28;20052;-66
2021/08/23 03:44:43;;;;;;;9.63;6.03;;;33.80;90.90;;;;;;4181044;28;20048;-67
2021/08/23 03:46:47;;;;;;;11.85;7.22;;;33.80;90.80;;;;;;4183772;28;20068;-66
2021/08/23 03:48:52;;;;;;;10.95;6.13;;;33.90;90.80;;;;;;4187273;28;20076;-67
2021/08/23 03:50:57;;;;;;;9.50;6.30;;;33.90;90.90;;;;;;4189013;28;20095;-67
2021/08/23 03:53:01;;;;;;;9.32;5.93;;;33.90;90.80;;;;;;4186612;28;20048;-67
2021/08/23 03:55:06;;;;;;;9.93;6.38;;;33.90;90.50;;;;;;4172873;28;20549;-66
2021/08/23 03:57:11;;;;;;;11.57;6.78;;;34.00;90.70;;;;;;4186463;28;20494;-66
2021/08/23 03:59:15;;;;;;;9.32;6.53;;;34.00;90.90;;;;;;4186880;28;20084;-64
2021/08/23 04:01:19;;;;;;;12.80;7.78;;;34.10;91.20;;;;;;4186335;28;20036;-65
2021/08/23 04:03:24;;;;;;;11.00;6.55;;;34.10;91.40;;;;;;4188314;28;20039;-66
2021/08/23 04:05:30;;;;;;;11.13;6.85;;;34.10;91.20;;;;;;4186326;28;20037;-66
2021/08/23 04:07:34;;;;;;;10.23;6.57;;;34.10;90.10;;;;;;4185999;28;20103;-66
2021/08/23 04:09:39;;;;;;;8.80;6.55;;;34.10;90.30;;;;;;4189505;28;20052;-66
2021/08/23 04:11:43;;;;;;;13.90;6.63;;;34.20;89.50;;;;;;4186442;28;20439;-66
2021/08/23 04:13:47;;;;;;;9.82;6.70;;;34.20;90.00;;;;;;4188231;28;20044;-67
2021/08/23 04:15:52;;;;;;;13.20;7.20;;;34.40;89.90;;;;;;4185041;28;20033;-68
2021/08/23 04:17:58;;;;;;;10.30;6.88;;;34.40;90.00;;;;;;4210189;28;20067;-66
2021/08/23 04:20:05;;;;;;;10.18;7.07;;;34.40;89.80;;;;;;4193705;28;20055;-68
2021/08/23 04:22:30;;;;;;;10.02;7.13;;;34.50;90.30;;;;;;4155862;28;20060;-68
2021/08/23 04:24:59;;;;;;;15.65;10.13;;;34.50;90.30;;;;;;4177565;28;20061;-66
2021/08/23 04:27:21;;;;;;;12.40;8.00;;;34.60;90.30;;;;;;4182932;28;20137;-66
2021/08/23 04:29:36;;;;;;;13.98;10.00;;;34.50;90.70;;;;;;4143731;28;20106;-67
2021/08/23 04:31:46;;;;;;;;;;;34.60;90.60;;;;;;4184212;28;20052;-66
2021/08/23 04:33:51;;;;;;;17.63;9.90;;;34.60;90.00;;;;;;4180818;28;19924;-66
2021/08/23 04:35:55;;;;;;;14.20;8.90;;;34.60;90.10;;;;;;4187285;28;20319;-67
2021/08/23 04:38:03;;;;;;;15.40;8.07;;;34.60;90.20;;;;;;4189455;28;20101;-65
2021/08/23 04:40:32;;;;;;;12.90;8.15;;;34.50;90.30;;;;;;4167270;28;20543;-69
2021/08/23 04:42:42;;;;;;;13.07;7.95;;;34.50;90.40;;;;;;4165001;28;20064;-68
2021/08/23 04:44:47;;;;;;;12.27;7.32;;;34.50;90.40;;;;;;4180222;28;20049;-67
2021/08/23 04:46:56;;;;;;;10.75;7.68;;;34.50;90.10;;;;;;4164663;28;20065;-69
2021/08/23 04:49:06;;;;;;;10.90;7.50;;;34.60;90.30;;;;;;4182791;28;20088;-68
2021/08/23 04:51:19;;;;;;;11.60;7.18;;;34.60;90.40;;;;;;4193220;28;20051;-70
2021/08/23 04:53:40;;;;;;;11.95;7.40;;;34.50;90.50;;;;;;4173610;28;20769;-67
2021/08/23 04:55:45;;;;;;;11.18;6.78;;;34.50;90.40;;;;;;4173195;28;20124;-68
2021/08/23 04:57:52;;;;;;;9.15;7.30;;;34.40;90.20;;;;;;4164111;28;20045;-66
2021/08/23 04:59:57;;;;;;;13.18;8.18;;;34.40;90.30;;;;;;4166177;28;20041;-68
2021/08/23 05:02:02;;;;;;;12.65;7.95;;;34.20;90.30;;;;;;4165684;28;20050;-66
2021/08/23 05:04:06;;;;;;;12.18;8.52;;;34.20;90.50;;;;;;4161448;28;20096;-67
2021/08/23 05:06:14;;;;;;;13.27;8.88;;;34.20;90.50;;;;;;4166612;28;20053;-66
2021/08/23 05:08:29;;;;;;;12.43;7.65;;;34.20;90.70;;;;;;4150440;28;20440;-68
2021/08/23 05:10:47;;;;;;;11.05;8.52;;;34.30;90.80;;;;;;4161248;28;20421;-71
2021/08/23 05:13:02;;;;;;;13.30;9.32;;;34.30;90.50;;;;;;4173505;28;20045;-70
2021/08/23 05:15:22;;;;;;;12.93;9.95;;;34.20;90.30;;;;;;4160068;28;20049;-69
2021/08/23 05:17:39;;;;;;;13.70;9.80;;;34.20;90.70;;;;;;4156583;28;20041;-69
2021/08/23 05:19:51;;;;;;;15.60;10.63;;;34.20;90.70;;;;;;4173566;28;20049;-68
2021/08/23 05:21:59;;;;;;;14.13;10.55;;;34.30;90.80;;;;;;4173322;28;20408;-68
2021/08/23 05:24:19;;;;;;;26.30;18.65;;;34.30;90.90;;;;;;4140625;28;20066;-68
2021/08/23 05:26:46;;;;;;;24.60;16.42;;;34.30;90.70;;;;;;4182869;28;20079;-69
2021/08/23 05:29:08;;;;;;;20.23;12.52;;;34.30;90.70;;;;;;4162714;28;20054;-68
2021/08/23 05:31:35;;;;;;;16.75;10.55;;;34.30;91.00;;;;;;4118550;28;20051;-69
2021/08/23 05:33:47;;;;;;;14.38;8.95;;;34.30;91.00;;;;;;4170317;28;20128;-68
2021/08/23 05:35:52;;;;;;;9.63;8.02;;;34.30;90.60;;;;;;4176903;28;20061;-70
2021/08/23 05:38:00;;;;;;;10.13;7.28;;;34.30;90.60;;;;;;4177103;28;20056;-69
2021/08/23 05:40:57;;;;;;;10.50;7.65;;;34.30;90.70;;;;;;4177303;28;20459;-68
2021/08/23 05:43:39;;;;;;;11.68;7.07;;;34.40;89.70;;;;;;4177586;28;20105;-68
2021/08/23 05:45:46;;;;;;;12.98;7.40;;;34.50;89.00;;;;;;4160462;28;20132;-70
2021/08/23 05:47:56;;;;;;;10.40;6.82;;;34.50;88.50;;;;;;4145051;28;20077;-71
2021/08/23 05:50:12;;;;;;;11.88;7.20;;;34.50;87.10;;;;;;4140876;28;20046;-69
2021/08/23 05:52:45;;;;;;;11.20;6.70;;;34.50;86.10;;;;;;4158491;28;20073;-70
2021/08/23 05:55:04;;;;;;;10.63;6.93;;;34.50;86.40;;;;;;4181225;28;20086;-71
2021/08/23 05:57:24;;;;;;;12.95;6.55;;;34.60;86.70;;;;;;4193703;28;20052;-68
2021/08/23 05:59:38;;;;;;;12.07;6.88;;;34.60;87.20;;;;;;4170587;28;20054;-70
2021/08/23 06:01:58;;;;;;;11.45;6.70;;;34.70;86.70;;;;;;4207148;28;20136;-69
2021/08/23 06:04:08;;;;;;;10.23;6.32;;;34.70;85.50;;;;;;4172837;28;20471;-68
2021/08/23 06:06:18;;;;;;;8.93;6.35;;;34.60;84.90;;;;;;4206295;28;20041;-72
2021/08/23 06:08:29;;;;;;;7.22;6.15;;;34.60;86.50;;;;;;4187585;28;20072;-70
2021/08/23 06:10:48;;;;;;;10.75;7.25;;;34.50;86.30;;;;;;4188399;28;20518;-68
2021/08/23 06:12:55;;;;;;;14.45;7.22;;;34.60;86.60;;;;;;4154613;28;20543;-70
2021/08/23 06:15:05;;;;;;;8.75;6.63;;;34.60;87.80;;;;;;4187276;28;20451;-68
2021/08/23 06:17:13;;;;;;;12.15;6.13;;;34.50;86.00;;;;;;4202323;28;20052;-67
2021/08/23 06:19:45;;;;;;;9.82;6.47;;;34.60;84.90;;;;;;4187679;28;20686;-68
2021/08/23 06:21:56;;;;;;;8.82;6.15;;;34.50;83.30;;;;;;4206442;28;20040;-69
2021/08/23 06:24:18;;;;;;;8.55;6.40;;;34.60;83.30;;;;;;4188209;28;20057;-69
2021/08/23 06:26:32;;;;;;;9.02;6.25;;;34.80;82.60;;;;;;4190580;28;20188;-69
2021/08/23 06:28:53;;;;;;;7.90;6.00;;;34.80;81.20;;;;;;4216799;28;20044;-69
2021/08/23 06:31:09;;;;;;;8.52;5.85;;;34.70;82.70;;;;;;4190524;28;20076;-69
2021/08/23 06:33:14;;;;;;;;;;;34.70;82.70;;;;;;4206942;28;20111;-68
2021/08/23 06:35:18;;;;;;;8.25;6.10;;;34.80;83.20;;;;;;4207298;28;19920;-67
2021/08/23 06:37:36;;;;;;;7.68;6.22;;;34.80;82.70;;;;;;4183171;28;20063;-71
2021/08/23 06:39:55;;;;;;;10.63;6.60;;;34.80;82.90;;;;;;4173017;28;20551;-68
2021/08/23 06:42:05;;;;;;;10.45;7.20;;;34.60;83.50;;;;;;4205079;28;20052;-70
2021/08/23 06:44:27;;;;;;;9.85;6.30;;;34.70;83.40;;;;;;4197299;28;20052;-69
2021/08/23 06:46:38;;;;;;;8.65;6.22;;;34.90;83.70;;;;;;4168532;28;20056;-70
2021/08/23 06:48:58;;;;;;;7.00;5.72;;;34.90;83.40;;;;;;4188802;28;20132;-70
2021/08/23 06:51:19;;;;;;;10.10;6.40;;;35.00;84.00;;;;;;4169142;28;20052;-68
2021/08/23 06:53:35;;;;;;;10.00;6.57;;;35.20;82.30;;;;;;4140607;28;20101;-69
2021/08/23 06:55:53;;;;;;;9.20;5.88;;;35.20;81.10;;;;;;4199057;28;20143;-68
2021/08/23 06:58:11;;;;;;;7.53;5.75;;;35.00;79.30;;;;;;4195801;28;20049;-70
2021/08/23 07:00:20;;;;;;;10.25;6.45;;;34.80;81.90;;;;;;4203447;28;20051;-71
2021/08/23 07:02:35;;;;;;;7.15;4.90;;;34.80;78.50;;;;;;4222227;28;20047;-68
2021/08/23 07:05:00;;;;;;;;;;;34.80;78.70;;;;;;4205868;28;20394;-68
2021/08/23 07:07:10;;;;;;;6.53;4.35;;;35.00;78.70;;;;;;4165807;28;19921;-68
2021/08/23 07:09:20;;;;;;;5.90;4.80;;;35.20;76.40;;;;;;4186171;28;20049;-70
2021/08/23 07:11:33;;;;;;;6.53;4.95;;;35.20;77.20;;;;;;4138440;28;20228;-70
2021/08/23 07:13:54;;;;;;;6.47;4.30;;;35.20;76.30;;;;;;4186047;28;20124;-68
2021/08/23 07:16:08;;;;;;;7.55;4.78;;;35.10;75.20;;;;;;4165386;28;20046;-68
2021/08/23 07:18:43;;;;;;;6.15;5.00;;;35.10;75.70;;;;;;4220957;28;20052;-69
2021/08/23 07:20:53;;;;;;;12.45;4.57;;;35.20;75.40;;;;;;4218281;28;20064;-68
2021/08/23 07:23:10;;;;;;;7.07;4.90;;;35.10;75.00;;;;;;4168018;28;20470;-70
2021/08/23 07:25:18;;;;;;;9.57;5.22;;;35.20;74.90;;;;;;4209364;28;20044;-69
2021/08/23 07:27:39;;;;;;;6.80;5.28;;;35.20;76.50;;;;;;4213809;28;20048;-68
2021/08/23 07:29:53;;;;;;;5.97;4.75;;;35.30;78.00;;;;;;4195062;28;20078;-68
2021/08/23 07:32:08;;;;;;;7.55;5.50;;;35.40;78.40;;;;;;4192748;28;20041;-70
2021/08/23 07:34:28;;;;;;;9.02;5.85;;;35.50;78.10;;;;;;4179174;28;20052;-69
2021/08/23 07:36:37;;;;;;;7.07;5.32;;;35.60;78.80;;;;;;4206643;28;20071;-69
2021/08/23 07:38:47;;;;;;;7.03;5.38;;;35.70;78.30;;;;;;4188309;28;20060;-69
2021/08/23 07:41:17;;;;;;;9.07;5.70;;;35.70;78.20;;;;;;4171997;28;20068;-69
2021/08/23 07:43:31;;;;;;;11.65;5.85;;;35.80;78.00;;;;;;4203589;28;20056;-68
2021/08/23 07:45:36;;;;;;;8.10;5.60;;;35.80;78.10;;;;;;4185642;28;20052;-69
2021/08/23 07:47:50;;;;;;;6.60;5.32;;;35.90;78.10;;;;;;4172184;28;20399;-68
2021/08/23 07:50:03;;;;;;;6.82;5.18;;;36.00;78.40;;;;;;4211686;28;20041;-68
2021/08/23 07:52:21;;;;;;;8.90;5.38;;;36.10;78.20;;;;;;4203641;28;20080;-68
2021/08/23 07:54:37;;;;;;;9.10;5.15;;;36.00;77.90;;;;;;4185890;28;20049;-70
2021/08/23 07:56:44;;;;;;;9.45;5.25;;;35.90;77.00;;;;;;4221495;28;20471;-68
2021/08/23 07:58:49;;;;;;;7.63;5.07;;;35.80;77.10;;;;;;4208267;28;20036;-69
2021/08/23 08:01:19;;;;;;;5.80;4.55;;;35.80;77.20;;;;;;4187753;28;20051;-70
2021/08/23 08:03:33;;;;;;;8.60;6.68;;;35.90;77.50;;;;;;4188487;28;20040;-71
2021/08/23 08:05:43;;;;;;;10.02;7.45;;;35.90;75.40;;;;;;4194775;28;20052;-68
2021/08/23 08:07:57;;;;;;;10.13;8.80;;;35.90;73.50;;;;;;4203635;28;20456;-67
2021/08/23 08:10:15;;;;;;;8.10;5.75;;;36.00;73.80;;;;;;4205351;28;20047;-71
2021/08/23 08:12:29;;;;;;;8.85;6.95;;;36.20;73.80;;;;;;4172223;28;20060;-69
2021/08/23 08:14:41;;;;;;;6.63;5.88;;;36.20;73.30;;;;;;4169415;28;20045;-69
2021/08/23 08:16:53;;;;;;;7.15;4.68;;;36.20;74.50;;;;;;4192932;28;20555;-70
2021/08/23 08:19:01;;;;;;;8.73;6.18;;;36.20;74.50;;;;;;4203769;28;20067;-68
2021/08/23 08:21:18;;;;;;;6.65;4.50;;;36.20;74.10;;;;;;4205166;28;20039;-69
2021/08/23 08:23:39;;;;;;;13.57;8.40;;;36.20;72.90;;;;;;4189306;28;20110;-70
2021/08/23 08:25:59;;;;;;;7.90;5.90;;;36.10;72.80;;;;;;4204738;28;20070;-68
2021/08/23 08:28:15;;;;;;;6.45;4.57;;;36.10;73.60;;;;;;4192732;28;20060;-67
2021/08/23 08:30:41;;;;;;;7.25;3.70;;;35.80;73.50;;;;;;4220815;28;20075;-69
2021/08/23 08:32:48;;;;;;;4.47;3.17;;;35.60;73.70;;;;;;4173699;28;20109;-70
2021/08/23 08:35:13;;;;;;;4.72;3.22;;;35.40;74.30;;;;;;4204949;28;20054;-72
2021/08/23 08:37:27;;;;;;;6.80;3.35;;;35.20;75.30;;;;;;4188010;28;20044;-69
2021/08/23 08:39:36;;;;;;;4.93;2.83;;;35.10;74.60;;;;;;4201676;28;20049;-69
2021/08/23 08:41:41;;;;;;;7.05;3.00;;;35.10;74.00;;;;;;4204301;28;20048;-72
2021/08/23 08:43:50;;;;;;;6.10;3.22;;;35.10;74.20;;;;;;4184876;28;20175;-70
2021/08/23 08:45:55;;;;;;;7.07;3.38;;;35.10;73.70;;;;;;4180936;28;20326;-70
2021/08/23 08:48:02;;;;;;;8.90;3.55;;;35.10;74.60;;;;;;4204447;28;20453;-68
2021/08/23 08:50:16;;;;;;;7.75;3.17;;;35.00;74.90;;;;;;4184859;28;20054;-68
2021/08/23 08:52:22;;;;;;;5.82;3.25;;;34.90;75.40;;;;;;4184918;28;20051;-70
2021/08/23 08:54:26;;;;;;;7.90;3.35;;;34.80;75.30;;;;;;4188002;28;20519;-71
2021/08/23 08:56:32;;;;;;;4.18;2.83;;;34.80;75.10;;;;;;4206068;28;20039;-71
2021/08/23 08:58:37;;;;;;;4.63;2.55;;;34.70;75.10;;;;;;4204944;28;20071;-73
2021/08/23 09:00:43;;;;;;;6.47;2.92;;;34.70;74.50;;;;;;4191693;28;20171;-69
2021/08/23 09:02:55;;;;;;;5.05;2.88;;;34.70;74.80;;;;;;4209162;28;20044;-71
2021/08/23 09:05:15;;;;;;;5.03;2.95;;;34.70;75.00;;;;;;4204348;28;20037;-71
2021/08/23 09:07:34;;;;;;;6.85;2.70;;;34.70;73.30;;;;;;4187088;28;20596;-70
2021/08/23 09:09:47;;;;;;;5.85;4.40;;;34.70;73.10;;;;;;4174175;28;20121;-70
2021/08/23 09:12:03;;;;;;;8.82;4.40;;;34.70;72.80;;;;;;4206928;28;20043;-71
2021/08/23 09:14:19;;;;;;;5.40;3.53;;;34.70;72.70;;;;;;4155569;28;20136;-71
2021/08/23 09:16:28;;;;;;;5.40;3.83;;;34.70;73.40;;;;;;4194150;28;20032;-69
2021/08/23 09:18:35;;;;;;;5.38;3.53;;;34.70;73.70;;;;;;4204769;28;20040;-69
2021/08/23 09:20:39;;;;;;;6.15;3.67;;;34.70;73.20;;;;;;4203913;28;20048;-69
2021/08/23 09:22:44;;;;;;;7.13;2.88;;;34.70;72.40;;;;;;4187168;28;20048;-69
2021/08/23 09:24:49;;;;;;;7.55;3.10;;;34.70;72.30;;;;;;4188271;28;20072;-70
2021/08/23 09:27:05;;;;;;;3.85;2.17;;;34.70;73.20;;;;;;4202702;28;20045;-67
2021/08/23 09:29:10;;;;;;;3.17;2.45;;;34.70;73.10;;;;;;4202495;28;20130;-69
2021/08/23 09:31:27;;;;;;;8.57;2.97;;;34.70;73.70;;;;;;4182163;28;20049;-69
2021/08/23 09:33:42;;;;;;;5.80;2.60;;;34.70;74.30;;;;;;4201920;28;20090;-68
2021/08/23 09:35:48;;;;;;;6.03;2.92;;;34.70;74.70;;;;;;4199737;28;20503;-67
2021/08/23 09:37:52;;;;;;;7.90;2.67;;;34.60;74.20;;;;;;4148217;28;20137;-67
2021/08/23 09:40:08;;;;;;;7.85;3.42;;;34.50;74.50;;;;;;4145839;28;20054;-67
2021/08/23 09:42:15;;;;;;;6.68;3.20;;;34.50;75.00;;;;;;4148433;28;20491;-69
2021/08/23 09:44:19;;;;;;;5.60;3.53;;;34.50;75.20;;;;;;4130751;28;20143;-68
2021/08/23 09:46:24;;;;;;;5.30;3.38;;;34.50;75.50;;;;;;4148759;28;20076;-68
2021/08/23 09:48:32;;;;;;;5.45;3.40;;;34.50;76.00;;;;;;4147657;28;20119;-67
2021/08/23 09:50:47;;;;;;;6.07;3.95;;;34.50;76.60;;;;;;4146908;28;20038;-67
2021/08/23 09:52:52;;;;;;;7.30;4.95;;;34.50;76.80;;;;;;4148395;28;20048;-70
2021/08/23 09:55:02;;;;;;;10.52;6.38;;;34.40;77.10;;;;;;4148951;28;20042;-68
2021/08/23 09:57:06;;;;;;;18.60;10.90;;;34.30;78.30;;;;;;4147804;28;20050;-65
2021/08/23 09:59:16;;;;;;;22.17;12.50;;;34.10;78.80;;;;;;4145872;28;20088;-67
2021/08/23 10:01:23;;;;;;;13.20;8.13;;;34.10;79.30;;;;;;4147482;28;20141;-67
2021/08/23 10:03:29;;;;;;;11.98;8.90;;;34.10;79.00;;;;;;4131034;28;20065;-67
2021/08/23 10:05:49;;;;;;;11.32;6.95;;;34.20;79.30;;;;;;4131132;28;20053;-68
2021/08/23 10:07:54;;;;;;;10.13;5.90;;;34.20;79.30;;;;;;4131085;28;20038;-69
2021/08/23 10:10:02;;;;;;;10.25;5.55;;;34.10;79.10;;;;;;4177077;28;20036;-67
2021/08/23 10:12:07;;;;;;;7.30;4.82;;;34.10;79.40;;;;;;4183453;28;20233;-68
2021/08/23 10:14:11;;;;;;;8.55;5.07;;;34.10;79.50;;;;;;4183328;28;20582;-66
2021/08/23 10:16:16;;;;;;;6.70;4.95;;;34.10;79.70;;;;;;4183447;28;20440;-69
2021/08/23 10:18:21;;;;;;;6.40;4.57;;;34.00;79.50;;;;;;4184558;28;20064;-67
2021/08/23 10:20:26;;;;;;;7.75;4.45;;;34.00;79.40;;;;;;4186470;28;20052;-68
2021/08/23 10:22:31;;;;;;;8.27;4.82;;;33.90;79.90;;;;;;4183423;28;20726;-67
2021/08/23 10:24:38;;;;;;;9.75;5.35;;;33.90;80.00;;;;;;4157549;28;20554;-68
2021/08/23 10:26:45;;;;;;;6.60;4.85;;;33.90;80.40;;;;;;4125934;28;20046;-66
2021/08/23 10:28:49;;;;;;;11.73;5.53;;;33.80;80.40;;;;;;4139141;28;20050;-66
2021/08/23 10:30:54;;;;;;;8.48;4.90;;;33.80;80.60;;;;;;4142882;28;20538;-66
2021/08/23 10:33:13;;;;;;;8.75;5.43;;;33.80;80.60;;;;;;4142974;28;20137;-67
2021/08/23 10:35:28;;;;;;;10.52;5.20;;;33.80;81.00;;;;;;4136464;28;20077;-66
2021/08/23 10:37:33;;;;;;;9.63;4.90;;;33.70;80.90;;;;;;4135163;28;20046;-67
2021/08/23 10:39:37;;;;;;;7.72;4.90;;;33.60;81.30;;;;;;4137282;28;20050;-67
2021/08/23 10:41:41;;;;;;;8.50;5.95;;;33.60;81.70;;;;;;4138724;28;20037;-67
2021/08/23 10:43:49;;;;;;;10.95;5.40;;;33.50;82.20;;;;;;4135778;28;20046;-67
2021/08/23 10:45:53;;;;;;;12.27;5.95;;;33.50;82.60;;;;;;4119480;28;20062;-67
2021/08/23 10:47:58;;;;;;;10.18;6.32;;;33.50;82.80;;;;;;4139383;28;20472;-67
2021/08/23 10:50:02;;;;;;;7.97;5.43;;;33.50;83.00;;;;;;4138390;28;20051;-66
2021/08/23 10:52:07;;;;;;;8.70;5.28;;;33.50;82.90;;;;;;4143632;28;20144;-66
2021/08/23 10:54:33;;;;;;;6.28;4.40;;;33.50;82.80;;;;;;4145440;28;20045;-66
2021/08/23 10:56:39;;;;;;;10.73;5.18;;;33.40;83.20;;;;;;4150521;28;20528;-65
2021/08/23 10:58:45;;;;;;;10.43;5.13;;;33.30;83.70;;;;;;4176420;28;20041;-65
2021/08/23 11:00:49;;;;;;;11.20;5.18;;;33.20;84.10;;;;;;4178055;28;20408;-68
2021/08/23 11:02:59;;;;;;;10.20;5.40;;;33.20;84.50;;;;;;4178512;28;20048;-67
2021/08/23 11:05:14;;;;;;;13.95;5.78;;;33.10;85.50;;;;;;4207704;28;20067;-66
2021/08/23 11:07:27;;;;;;;7.35;4.93;;;33.10;86.20;;;;;;4199390;28;20055;-66
2021/08/23 11:09:39;;;;;;;10.05;5.55;;;33.10;86.50;;;;;;4188307;28;20510;-65
2021/08/23 11:11:43;;;;;;;8.93;5.55;;;33.00;86.90;;;;;;4186248;28;20032;-66